sensor_id;sensor_type;location;lat;lon;timestamp;P1;P2;P0
65360;PMS5003;51958;55.018;73.536;2023-06-10T00:00:39;29.00;28.00;18.00
65360;PMS5003;51958;55.018;73.536;2023-06-10T00:03:41;28.00;27.00;18.00
65360;PMS5003;51958;55.018;73.536;2023-06-10T00:06:44;27.00;26.00;17.33
65360;PMS5003;51958;55.018;73.536;2023-06-10T00:09:45;28.75;28.00;18.00
65360;PMS5003;51958;55.018;73.536;2023-06-10T00:12:46;36.25;32.50;21.25
65360;PMS5003;51958;55.018;73.536;2023-06-10T00:15:50;35.50;32.00;21.00
65360;PMS5003;51958;55.018;73.536;2023-06-10T00:18:51;33.25;30.00;20.00
65360;PMS5003;51958;55.018;73.536;2023-06-10T00:21:52;25.00;25.00;17.33
65360;PMS5003;51958;55.018;73.536;2023-06-10T00:24:53;21.25;21.00;16.00
65360;PMS5003;51958;55.018;73.536;2023-06-10T00:27:54;17.33;17.33;13.00
65360;PMS5003;51958;55.018;73.536;2023-06-10T00:30:55;15.50;15.50;8.50
65360;PMS5003;51958;55.018;73.536;2023-06-10T00:33:58;15.00;15.00;8.00
65360;PMS5003;51958;55.018;73.536;2023-06-10T00:36:59;17.00;16.75;9.75
65360;PMS5003;51958;55.018;73.536;2023-06-10T00:40:01;16.00;16.00;7.67
65360;PMS5003;51958;55.018;73.536;2023-06-10T00:43:03;14.00;14.00;7.00
65360;PMS5003;51958;55.018;73.536;2023-06-10T00:46:06;14.00;14.00;7.00
65360;PMS5003;51958;55.018;73.536;2023-06-10T00:49:07;17.00;15.00;7.75
65360;PMS5003;51958;55.018;73.536;2023-06-10T00:52:08;17.00;17.00;8.00
65360;PMS5003;51958;55.018;73.536;2023-06-10T00:55:11;19.00;18.00;8.50
65360;PMS5003;51958;55.018;73.536;2023-06-10T00:58:12;20.00;18.33;11.00
65360;PMS5003;51958;55.018;73.536;2023-06-10T01:01:13;21.50;19.00;11.00
65360;PMS5003;51958;55.018;73.536;2023-06-10T01:04:15;20.50;20.00;12.00
65360;PMS5003;51958;55.018;73.536;2023-06-10T01:07:31;21.00;20.00;11.67
65360;PMS5003;51958;55.018;73.536;2023-06-10T01:13:41;21.75;19.25;11.00
65360;PMS5003;51958;55.018;73.536;2023-06-10T01:16:42;20.00;19.00;9.00
65360;PMS5003;51958;55.018;73.536;2023-06-10T01:19:53;19.00;17.00;9.00
65360;PMS5003;51958;55.018;73.536;2023-06-10T01:22:55;20.00;18.75;10.50
65360;PMS5003;51958;55.018;73.536;2023-06-10T01:26:06;20.00;19.00;9.00
65360;PMS5003;51958;55.018;73.536;2023-06-10T01:29:21;20.00;18.00;9.00
65360;PMS5003;51958;55.018;73.536;2023-06-10T01:32:34;19.00;18.00;9.50
65360;PMS5003;51958;55.018;73.536;2023-06-10T01:35:37;19.00;19.00;9.75
65360;PMS5003;51958;55.018;73.536;2023-06-10T01:38:40;24.33;22.00;14.67
65360;PMS5003;51958;55.018;73.536;2023-06-10T01:41:43;25.00;24.00;16.00
65360;PMS5003;51958;55.018;73.536;2023-06-10T01:44:47;23.00;21.00;14.00
65360;PMS5003;51958;55.018;73.536;2023-06-10T01:47:49;26.00;24.00;14.00
65360;PMS5003;51958;55.018;73.536;2023-06-10T01:50:50;26.00;23.00;15.00
65360;PMS5003;51958;55.018;73.536;2023-06-10T01:53:51;26.00;23.75;15.75
65360;PMS5003;51958;55.018;73.536;2023-06-10T01:56:54;29.00;25.67;17.00
65360;PMS5003;51958;55.018;73.536;2023-06-10T01:59:55;29.25;26.00;18.00
65360;PMS5003;51958;55.018;73.536;2023-06-10T02:02:56;29.33;27.33;19.33
65360;PMS5003;51958;55.018;73.536;2023-06-10T02:05:58;28.00;25.75;18.50
65360;PMS5003;51958;55.018;73.536;2023-06-10T02:09:00;25.00;25.00;18.00
65360;PMS5003;51958;55.018;73.536;2023-06-10T02:12:03;23.25;23.00;17.00
65360;PMS5003;51958;55.018;73.536;2023-06-10T02:15:05;22.00;21.00;14.00
65360;PMS5003;51958;55.018;73.536;2023-06-10T02:18:06;23.00;21.00;14.00
65360;PMS5003;51958;55.018;73.536;2023-06-10T02:21:10;21.00;20.75;12.00
65360;PMS5003;51958;55.018;73.536;2023-06-10T02:24:11;20.00;20.00;12.00
65360;PMS5003;51958;55.018;73.536;2023-06-10T02:27:14;20.00;19.50;11.00
65360;PMS5003;51958;55.018;73.536;2023-06-10T02:30:15;19.00;17.00;12.00
65360;PMS5003;51958;55.018;73.536;2023-06-10T02:33:16;18.00;17.00;10.00
65360;PMS5003;51958;55.018;73.536;2023-06-10T02:36:18;20.25;17.50;11.25
65360;PMS5003;51958;55.018;73.536;2023-06-10T02:39:21;20.00;20.00;12.00
65360;PMS5003;51958;55.018;73.536;2023-06-10T02:42:22;22.25;20.75;12.50
65360;PMS5003;51958;55.018;73.536;2023-06-10T02:45:25;22.75;21.00;13.00
65360;PMS5003;51958;55.018;73.536;2023-06-10T02:48:27;23.00;20.00;12.00
65360;PMS5003;51958;55.018;73.536;2023-06-10T02:51:29;20.00;18.00;11.50
65360;PMS5003;51958;55.018;73.536;2023-06-10T02:54:34;20.00;17.00;11.00
65360;PMS5003;51958;55.018;73.536;2023-06-10T02:57:37;20.75;18.25;11.00
65360;PMS5003;51958;55.018;73.536;2023-06-10T03:00:39;20.50;19.50;11.25
65360;PMS5003;51958;55.018;73.536;2023-06-10T03:03:43;19.25;19.00;10.00
65360;PMS5003;51958;55.018;73.536;2023-06-10T03:06:46;19.00;18.00;9.00
65360;PMS5003;51958;55.018;73.536;2023-06-10T03:09:59;19.00;17.00;10.00
65360;PMS5003;51958;55.018;73.536;2023-06-10T03:13:01;18.00;16.25;9.50
65360;PMS5003;51958;55.018;73.536;2023-06-10T03:16:02;19.00;17.00;9.50
65360;PMS5003;51958;55.018;73.536;2023-06-10T03:19:05;22.00;19.00;10.50
65360;PMS5003;51958;55.018;73.536;2023-06-10T03:22:10;20.50;18.25;8.50
65360;PMS5003;51958;55.018;73.536;2023-06-10T03:25:15;21.00;21.00;11.00
65360;PMS5003;51958;55.018;73.536;2023-06-10T03:28:21;21.25;20.25;11.00
65360;PMS5003;51958;55.018;73.536;2023-06-10T03:31:22;21.50;20.00;10.50
65360;PMS5003;51958;55.018;73.536;2023-06-10T03:34:26;23.25;21.00;12.00
65360;PMS5003;51958;55.018;73.536;2023-06-10T03:37:27;22.00;20.00;12.00
65360;PMS5003;51958;55.018;73.536;2023-06-10T03:40:29;20.33;20.00;10.00
65360;PMS5003;51958;55.018;73.536;2023-06-10T03:43:32;19.25;19.25;10.00
65360;PMS5003;51958;55.018;73.536;2023-06-10T03:46:34;19.75;17.00;8.25
65360;PMS5003;51958;55.018;73.536;2023-06-10T03:49:36;21.00;18.00;9.00
65360;PMS5003;51958;55.018;73.536;2023-06-10T03:52:38;23.00;21.00;9.75
65360;PMS5003;51958;55.018;73.536;2023-06-10T03:55:40;21.00;20.75;11.00
65360;PMS5003;51958;55.018;73.536;2023-06-10T03:58:42;18.00;18.00;9.00
65360;PMS5003;51958;55.018;73.536;2023-06-10T04:01:44;18.00;17.00;7.00
65360;PMS5003;51958;55.018;73.536;2023-06-10T04:04:45;16.75;15.00;7.00
65360;PMS5003;51958;55.018;73.536;2023-06-10T04:07:52;13.00;11.00;6.20
65360;PMS5003;51958;55.018;73.536;2023-06-10T04:10:55;11.00;9.75;6.75
65360;PMS5003;51958;55.018;73.536;2023-06-10T04:13:56;12.50;10.25;6.00
65360;PMS5003;51958;55.018;73.536;2023-06-10T04:16:58;11.00;10.00;5.00
65360;PMS5003;51958;55.018;73.536;2023-06-10T04:19:59;9.00;7.33;4.00
65360;PMS5003;51958;55.018;73.536;2023-06-10T04:23:02;8.00;7.00;3.00
65360;PMS5003;51958;55.018;73.536;2023-06-10T04:26:05;9.00;9.00;4.50
65360;PMS5003;51958;55.018;73.536;2023-06-10T04:29:06;8.00;8.00;4.00
65360;PMS5003;51958;55.018;73.536;2023-06-10T04:32:08;11.75;11.00;5.00
65360;PMS5003;51958;55.018;73.536;2023-06-10T04:35:14;13.50;13.00;7.00
65360;PMS5003;51958;55.018;73.536;2023-06-10T04:38:16;14.00;13.00;8.00
65360;PMS5003;51958;55.018;73.536;2023-06-10T04:41:18;13.75;13.75;6.00
65360;PMS5003;51958;55.018;73.536;2023-06-10T04:44:20;14.75;13.00;8.00
65360;PMS5003;51958;55.018;73.536;2023-06-10T04:47:22;17.00;14.25;7.00
65360;PMS5003;51958;55.018;73.536;2023-06-10T04:50:23;16.00;16.00;6.00
65360;PMS5003;51958;55.018;73.536;2023-06-10T04:53:24;16.00;15.00;7.75
65360;PMS5003;51958;55.018;73.536;2023-06-10T04:56:25;20.00;16.00;8.00
65360;PMS5003;51958;55.018;73.536;2023-06-10T04:59:26;20.67;17.33;9.00
65360;PMS5003;51958;55.018;73.536;2023-06-10T05:02:27;21.00;18.00;9.00
65360;PMS5003;51958;55.018;73.536;2023-06-10T05:05:29;19.50;17.00;8.00
65360;PMS5003;51958;55.018;73.536;2023-06-10T05:08:30;28.75;25.50;13.25
65360;PMS5003;51958;55.018;73.536;2023-06-10T05:11:31;26.00;23.50;12.50
65360;PMS5003;51958;55.018;73.536;2023-06-10T05:14:32;22.75;21.00;10.00
65360;PMS5003;51958;55.018;73.536;2023-06-10T05:17:33;20.00;18.00;10.00
65360;PMS5003;51958;55.018;73.536;2023-06-10T05:20:35;19.00;19.00;9.00
65360;PMS5003;51958;55.018;73.536;2023-06-10T05:23:36;17.00;17.00;7.00
65360;PMS5003;51958;55.018;73.536;2023-06-10T05:26:37;16.00;16.00;6.00
65360;PMS5003;51958;55.018;73.536;2023-06-10T05:29:39;14.00;14.00;6.00
65360;PMS5003;51958;55.018;73.536;2023-06-10T05:32:41;15.00;14.00;6.50
65360;PMS5003;51958;55.018;73.536;2023-06-10T05:35:41;20.00;17.75;9.00
65360;PMS5003;51958;55.018;73.536;2023-06-10T05:38:43;16.00;14.50;6.00
65360;PMS5003;51958;55.018;73.536;2023-06-10T05:41:44;11.00;9.00;5.25
65360;PMS5003;51958;55.018;73.536;2023-06-10T05:44:45;11.25;8.75;6.00
65360;PMS5003;51958;55.018;73.536;2023-06-10T05:47:46;12.00;10.25;6.00
65360;PMS5003;51958;55.018;73.536;2023-06-10T05:50:47;15.00;11.00;7.00
65360;PMS5003;51958;55.018;73.536;2023-06-10T05:53:49;16.00;12.75;6.50
65360;PMS5003;51958;55.018;73.536;2023-06-10T05:56:50;18.25;17.25;8.00
65360;PMS5003;51958;55.018;73.536;2023-06-10T05:59:51;20.00;16.00;9.00
65360;PMS5003;51958;55.018;73.536;2023-06-10T06:02:52;16.00;15.00;8.00
65360;PMS5003;51958;55.018;73.536;2023-06-10T06:05:54;14.50;12.50;7.25
65360;PMS5003;51958;55.018;73.536;2023-06-10T06:08:56;15.00;12.00;7.00
65360;PMS5003;51958;55.018;73.536;2023-06-10T06:11:57;13.00;11.00;6.25
65360;PMS5003;51958;55.018;73.536;2023-06-10T06:14:58;11.00;9.00;7.00
65360;PMS5003;51958;55.018;73.536;2023-06-10T06:17:59;11.50;10.25;7.75
65360;PMS5003;51958;55.018;73.536;2023-06-10T06:21:00;12.00;10.00;7.67
65360;PMS5003;51958;55.018;73.536;2023-06-10T06:24:01;11.00;10.00;7.00
65360;PMS5003;51958;55.018;73.536;2023-06-10T06:27:02;8.00;8.00;5.00
65360;PMS5003;51958;55.018;73.536;2023-06-10T06:30:03;7.00;7.00;4.00
65360;PMS5003;51958;55.018;73.536;2023-06-10T06:33:06;10.75;9.50;5.75
65360;PMS5003;51958;55.018;73.536;2023-06-10T06:36:07;10.00;7.50;5.00
65360;PMS5003;51958;55.018;73.536;2023-06-10T06:39:12;7.00;7.00;4.00
65360;PMS5003;51958;55.018;73.536;2023-06-10T06:42:15;7.00;7.00;4.50
65360;PMS5003;51958;55.018;73.536;2023-06-10T06:45:26;8.00;7.75;5.00
65360;PMS5003;51958;55.018;73.536;2023-06-10T06:48:27;6.00;6.00;4.00
65360;PMS5003;51958;55.018;73.536;2023-06-10T06:51:28;11.00;8.25;5.50
65360;PMS5003;51958;55.018;73.536;2023-06-10T06:54:30;14.00;8.50;6.00
65360;PMS5003;51958;55.018;73.536;2023-06-10T06:57:31;13.75;10.50;7.00
65360;PMS5003;51958;55.018;73.536;2023-06-10T07:00:32;13.00;12.00;6.33
65360;PMS5003;51958;55.018;73.536;2023-06-10T07:03:33;12.75;11.25;6.00
65360;PMS5003;51958;55.018;73.536;2023-06-10T07:06:34;15.00;11.00;6.00
65360;PMS5003;51958;55.018;73.536;2023-06-10T07:09:40;12.00;11.00;6.00
65360;PMS5003;51958;55.018;73.536;2023-06-10T07:12:55;9.00;9.00;5.00
65360;PMS5003;51958;55.018;73.536;2023-06-10T07:15:56;12.00;10.50;5.00
65360;PMS5003;51958;55.018;73.536;2023-06-10T07:18:57;15.00;12.00;7.00
65360;PMS5003;51958;55.018;73.536;2023-06-10T07:21:58;13.00;10.00;6.00
65360;PMS5003;51958;55.018;73.536;2023-06-10T07:24:59;10.00;8.25;4.00
65360;PMS5003;51958;55.018;73.536;2023-06-10T07:28:01;12.00;9.00;6.25
65360;PMS5003;51958;55.018;73.536;2023-06-10T07:31:02;7.75;7.50;4.25
65360;PMS5003;51958;55.018;73.536;2023-06-10T07:34:03;6.00;6.00;4.00
65360;PMS5003;51958;55.018;73.536;2023-06-10T07:37:04;6.00;6.00;5.00
65360;PMS5003;51958;55.018;73.536;2023-06-10T07:40:05;7.75;7.50;4.00
65360;PMS5003;51958;55.018;73.536;2023-06-10T07:43:07;8.50;8.50;3.00
65360;PMS5003;51958;55.018;73.536;2023-06-10T07:46:08;7.00;7.00;4.00
65360;PMS5003;51958;55.018;73.536;2023-06-10T07:49:09;8.00;8.00;5.50
65360;PMS5003;51958;55.018;73.536;2023-06-10T07:52:10;9.00;9.00;5.00
65360;PMS5003;51958;55.018;73.536;2023-06-10T07:55:11;9.50;9.50;6.00
65360;PMS5003;51958;55.018;73.536;2023-06-10T07:58:12;8.75;8.00;5.00
65360;PMS5003;51958;55.018;73.536;2023-06-10T08:01:13;10.50;9.50;6.00
65360;PMS5003;51958;55.018;73.536;2023-06-10T08:04:14;10.00;8.00;6.00
65360;PMS5003;51958;55.018;73.536;2023-06-10T08:07:15;8.00;8.00;5.25
65360;PMS5003;51958;55.018;73.536;2023-06-10T08:10:16;8.50;8.50;4.00
65360;PMS5003;51958;55.018;73.536;2023-06-10T08:13:17;8.00;8.00;4.00
65360;PMS5003;51958;55.018;73.536;2023-06-10T08:16:18;8.00;8.00;5.00
65360;PMS5003;51958;55.018;73.536;2023-06-10T08:19:20;9.25;8.00;4.25
65360;PMS5003;51958;55.018;73.536;2023-06-10T08:22:21;9.75;8.50;5.00
65360;PMS5003;51958;55.018;73.536;2023-06-10T08:25:22;8.00;8.00;5.00
65360;PMS5003;51958;55.018;73.536;2023-06-10T08:28:23;7.00;7.00;5.00
65360;PMS5003;51958;55.018;73.536;2023-06-10T08:31:24;7.00;7.00;4.00
65360;PMS5003;51958;55.018;73.536;2023-06-10T08:34:25;9.25;8.25;5.00
65360;PMS5003;51958;55.018;73.536;2023-06-10T08:37:26;9.00;9.00;6.00
65360;PMS5003;51958;55.018;73.536;2023-06-10T08:40:29;10.00;10.00;5.00
65360;PMS5003;51958;55.018;73.536;2023-06-10T08:46:37;8.00;8.00;5.00
65360;PMS5003;51958;55.018;73.536;2023-06-10T08:49:41;9.50;9.25;6.00
65360;PMS5003;51958;55.018;73.536;2023-06-10T08:52:43;13.33;13.33;6.67
65360;PMS5003;51958;55.018;73.536;2023-06-10T08:55:46;16.00;15.00;8.00
65360;PMS5003;51958;55.018;73.536;2023-06-10T08:58:50;16.00;16.00;7.00
65360;PMS5003;51958;55.018;73.536;2023-06-10T09:01:51;18.00;16.00;6.00
65360;PMS5003;51958;55.018;73.536;2023-06-10T09:04:53;17.00;16.00;6.00
65360;PMS5003;51958;55.018;73.536;2023-06-10T09:07:54;16.00;13.00;6.00
65360;PMS5003;51958;55.018;73.536;2023-06-10T09:10:57;16.00;14.00;7.00
65360;PMS5003;51958;55.018;73.536;2023-06-10T09:13:58;14.00;10.00;5.25
65360;PMS5003;51958;55.018;73.536;2023-06-10T09:16:59;10.00;8.00;5.00
65360;PMS5003;51958;55.018;73.536;2023-06-10T09:20:00;10.00;9.00;5.00
65360;PMS5003;51958;55.018;73.536;2023-06-10T09:23:04;10.00;9.00;6.00
65360;PMS5003;51958;55.018;73.536;2023-06-10T09:26:08;12.50;11.25;6.50
65360;PMS5003;51958;55.018;73.536;2023-06-10T09:29:09;12.00;12.00;6.00
65360;PMS5003;51958;55.018;73.536;2023-06-10T09:32:12;12.75;11.00;6.00
65360;PMS5003;51958;55.018;73.536;2023-06-10T09:35:13;7.00;7.00;4.00
65360;PMS5003;51958;55.018;73.536;2023-06-10T09:38:15;9.00;9.00;5.25
65360;PMS5003;51958;55.018;73.536;2023-06-10T09:41:31;12.00;11.00;7.00
65360;PMS5003;51958;55.018;73.536;2023-06-10T09:44:35;10.00;8.25;5.00
65360;PMS5003;51958;55.018;73.536;2023-06-10T09:47:36;9.50;8.00;5.00
65360;PMS5003;51958;55.018;73.536;2023-06-10T09:50:42;5.00;5.00;4.00
65360;PMS5003;51958;55.018;73.536;2023-06-10T09:53:47;7.75;7.50;5.00
65360;PMS5003;51958;55.018;73.536;2023-06-10T09:56:51;7.00;7.00;4.00
65360;PMS5003;51958;55.018;73.536;2023-06-10T09:59:52;10.00;9.00;5.00
65360;PMS5003;51958;55.018;73.536;2023-06-10T10:02:53;7.00;7.00;3.25
65360;PMS5003;51958;55.018;73.536;2023-06-10T10:05:58;7.00;7.00;4.00
65360;PMS5003;51958;55.018;73.536;2023-06-10T10:09:01;10.00;9.00;5.00
65360;PMS5003;51958;55.018;73.536;2023-06-10T10:12:11;11.00;9.00;5.00
65360;PMS5003;51958;55.018;73.536;2023-06-10T10:15:12;8.75;7.50;5.00
65360;PMS5003;51958;55.018;73.536;2023-06-10T10:18:14;9.75;9.00;6.00
65360;PMS5003;51958;55.018;73.536;2023-06-10T10:21:23;9.75;9.25;7.00
65360;PMS5003;51958;55.018;73.536;2023-06-10T10:24:29;14.00;11.00;7.00
65360;PMS5003;51958;55.018;73.536;2023-06-10T10:27:36;16.00;12.00;7.75
65360;PMS5003;51958;55.018;73.536;2023-06-10T10:30:39;17.75;15.00;8.00
65360;PMS5003;51958;55.018;73.536;2023-06-10T10:33:42;17.00;14.00;6.75
65360;PMS5003;51958;55.018;73.536;2023-06-10T10:36:46;16.00;14.00;7.00
65360;PMS5003;51958;55.018;73.536;2023-06-10T10:39:48;17.00;15.75;9.50
65360;PMS5003;51958;55.018;73.536;2023-06-10T10:42:51;18.00;17.25;11.00
65360;PMS5003;51958;55.018;73.536;2023-06-10T10:46:00;23.50;22.50;15.25
65360;PMS5003;51958;55.018;73.536;2023-06-10T10:49:01;25.00;24.00;17.00
65360;PMS5003;51958;55.018;73.536;2023-06-10T10:52:03;24.00;23.00;17.00
65360;PMS5003;51958;55.018;73.536;2023-06-10T10:55:10;25.00;24.00;17.00
65360;PMS5003;51958;55.018;73.536;2023-06-10T10:58:13;27.00;26.00;17.00
65360;PMS5003;51958;55.018;73.536;2023-06-10T11:01:17;19.50;18.25;14.25
65360;PMS5003;51958;55.018;73.536;2023-06-10T11:04:18;17.67;17.00;12.00
65360;PMS5003;51958;55.018;73.536;2023-06-10T11:07:22;24.75;23.75;17.75
65360;PMS5003;51958;55.018;73.536;2023-06-10T11:10:35;23.00;23.00;18.00
65360;PMS5003;51958;55.018;73.536;2023-06-10T11:13:36;21.00;21.00;14.25
65360;PMS5003;51958;55.018;73.536;2023-06-10T11:16:42;18.75;18.00;10.50
65360;PMS5003;51958;55.018;73.536;2023-06-10T11:19:53;17.50;17.50;8.00
65360;PMS5003;51958;55.018;73.536;2023-06-10T11:23:02;17.00;16.00;9.00
65360;PMS5003;51958;55.018;73.536;2023-06-10T11:29:16;22.00;19.00;10.50
65360;PMS5003;51958;55.018;73.536;2023-06-10T11:32:17;20.00;19.00;11.00
65360;PMS5003;51958;55.018;73.536;2023-06-10T11:35:19;23.00;20.00;13.00
65360;PMS5003;51958;55.018;73.536;2023-06-10T11:38:21;18.25;16.25;7.00
65360;PMS5003;51958;55.018;73.536;2023-06-10T11:41:23;18.00;16.75;9.00
65360;PMS5003;51958;55.018;73.536;2023-06-10T11:44:25;18.50;18.00;8.00
65360;PMS5003;51958;55.018;73.536;2023-06-10T11:47:28;17.00;17.00;9.00
65360;PMS5003;51958;55.018;73.536;2023-06-10T11:50:30;18.75;17.00;10.00
65360;PMS5003;51958;55.018;73.536;2023-06-10T11:53:31;18.00;16.00;10.75
65360;PMS5003;51958;55.018;73.536;2023-06-10T11:56:32;19.00;17.00;9.00
65360;PMS5003;51958;55.018;73.536;2023-06-10T11:59:33;20.00;18.00;9.00
65360;PMS5003;51958;55.018;73.536;2023-06-10T12:02:34;20.00;18.00;8.33
65360;PMS5003;51958;55.018;73.536;2023-06-10T12:05:35;23.00;20.00;13.00
65360;PMS5003;51958;55.018;73.536;2023-06-10T12:08:41;21.00;20.00;13.00
65360;PMS5003;51958;55.018;73.536;2023-06-10T12:11:42;19.50;18.00;9.00
65360;PMS5003;51958;55.018;73.536;2023-06-10T12:17:56;17.00;16.00;9.00
65360;PMS5003;51958;55.018;73.536;2023-06-10T12:20:57;18.00;17.00;9.00
65360;PMS5003;51958;55.018;73.536;2023-06-10T12:27:06;21.75;17.75;9.50
65360;PMS5003;51958;55.018;73.536;2023-06-10T12:30:18;20.00;18.00;9.00
65360;PMS5003;51958;55.018;73.536;2023-06-10T12:33:20;21.00;20.00;14.00
65360;PMS5003;51958;55.018;73.536;2023-06-10T12:36:21;22.00;19.25;12.00
65360;PMS5003;51958;55.018;73.536;2023-06-10T12:39:22;19.00;19.00;9.50
65360;PMS5003;51958;55.018;73.536;2023-06-10T12:42:24;19.75;18.00;8.00
65360;PMS5003;51958;55.018;73.536;2023-06-10T12:45:31;20.00;18.00;9.00
65360;PMS5003;51958;55.018;73.536;2023-06-10T12:48:32;16.00;16.00;7.50
65360;PMS5003;51958;55.018;73.536;2023-06-10T12:51:33;19.50;18.00;9.00
65360;PMS5003;51958;55.018;73.536;2023-06-10T12:54:35;20.00;17.25;8.00
65360;PMS5003;51958;55.018;73.536;2023-06-10T12:57:47;19.75;17.00;9.00
65360;PMS5003;51958;55.018;73.536;2023-06-10T13:01:34;21.25;18.75;9.00
65360;PMS5003;51958;55.018;73.536;2023-06-10T13:04:35;22.00;21.00;12.75
65360;PMS5003;51958;55.018;73.536;2023-06-10T13:07:36;25.25;24.00;14.75
65360;PMS5003;51958;55.018;73.536;2023-06-10T13:10:38;20.75;20.75;14.00
65360;PMS5003;51958;55.018;73.536;2023-06-10T13:13:39;17.00;17.00;7.25
65360;PMS5003;51958;55.018;73.536;2023-06-10T13:16:40;17.00;16.00;6.00
65360;PMS5003;51958;55.018;73.536;2023-06-10T13:19:41;15.00;15.00;7.00
65360;PMS5003;51958;55.018;73.536;2023-06-10T13:22:42;17.00;16.00;8.50
65360;PMS5003;51958;55.018;73.536;2023-06-10T13:25:44;18.00;18.00;10.00
65360;PMS5003;51958;55.018;73.536;2023-06-10T13:28:45;19.00;18.00;8.00
65360;PMS5003;51958;55.018;73.536;2023-06-10T13:31:46;18.00;16.00;8.50
65360;PMS5003;51958;55.018;73.536;2023-06-10T13:34:47;19.00;18.33;10.00
65360;PMS5003;51958;55.018;73.536;2023-06-10T13:37:49;23.75;23.50;15.00
65360;PMS5003;51958;55.018;73.536;2023-06-10T13:40:51;24.00;23.00;16.00
65360;PMS5003;51958;55.018;73.536;2023-06-10T13:43:52;25.00;23.67;16.00
65360;PMS5003;51958;55.018;73.536;2023-06-10T13:46:52;25.00;24.00;17.00
65360;PMS5003;51958;55.018;73.536;2023-06-10T13:49:53;23.00;22.00;16.00
65360;PMS5003;51958;55.018;73.536;2023-06-10T13:52:54;22.00;20.00;14.00
65360;PMS5003;51958;55.018;73.536;2023-06-10T13:55:56;21.75;21.00;15.00
65360;PMS5003;51958;55.018;73.536;2023-06-10T13:58:58;24.00;21.50;15.00
65360;PMS5003;51958;55.018;73.536;2023-06-10T14:01:59;24.00;21.00;15.00
65360;PMS5003;51958;55.018;73.536;2023-06-10T14:05:01;23.00;21.75;15.00
65360;PMS5003;51958;55.018;73.536;2023-06-10T14:08:03;24.00;24.00;14.00
65360;PMS5003;51958;55.018;73.536;2023-06-10T14:11:04;24.00;24.00;15.00
65360;PMS5003;51958;55.018;73.536;2023-06-10T14:14:05;26.00;25.00;14.00
65360;PMS5003;51958;55.018;73.536;2023-06-10T14:17:06;27.00;27.00;14.25
65360;PMS5003;51958;55.018;73.536;2023-06-10T14:20:08;30.00;28.00;15.75
65360;PMS5003;51958;55.018;73.536;2023-06-10T14:23:09;30.75;27.25;16.75
65360;PMS5003;51958;55.018;73.536;2023-06-10T14:26:10;29.25;27.00;17.00
65360;PMS5003;51958;55.018;73.536;2023-06-10T14:29:11;21.50;21.50;15.00
65360;PMS5003;51958;55.018;73.536;2023-06-10T14:32:14;19.25;19.00;12.00
65360;PMS5003;51958;55.018;73.536;2023-06-10T14:35:15;20.00;17.00;9.00
65360;PMS5003;51958;55.018;73.536;2023-06-10T14:38:17;20.00;18.00;7.00
65360;PMS5003;51958;55.018;73.536;2023-06-10T14:41:18;20.00;18.00;11.00
65360;PMS5003;51958;55.018;73.536;2023-06-10T14:44:19;25.67;25.00;14.33
65360;PMS5003;51958;55.018;73.536;2023-06-10T14:47:20;30.25;29.00;18.00
65360;PMS5003;51958;55.018;73.536;2023-06-10T14:50:21;29.00;29.00;18.00
65360;PMS5003;51958;55.018;73.536;2023-06-10T14:53:22;27.00;26.00;18.00
65360;PMS5003;51958;55.018;73.536;2023-06-10T14:56:24;35.67;31.33;21.00
65360;PMS5003;51958;55.018;73.536;2023-06-10T14:59:26;44.75;36.25;23.25
65360;PMS5003;51958;55.018;73.536;2023-06-10T15:02:27;52.75;42.75;27.75
65360;PMS5003;51958;55.018;73.536;2023-06-10T15:05:28;52.00;43.00;28.00
65360;PMS5003;51958;55.018;73.536;2023-06-10T15:08:29;46.00;38.50;27.00
65360;PMS5003;51958;55.018;73.536;2023-06-10T15:11:30;44.50;37.00;26.00
65360;PMS5003;51958;55.018;73.536;2023-06-10T15:14:31;48.33;39.33;25.33
65360;PMS5003;51958;55.018;73.536;2023-06-10T15:17:32;55.50;44.50;28.00
65360;PMS5003;51958;55.018;73.536;2023-06-10T15:20:33;57.00;45.00;29.00
65360;PMS5003;51958;55.018;73.536;2023-06-10T15:23:35;55.50;45.00;28.00
65360;PMS5003;51958;55.018;73.536;2023-06-10T15:26:36;52.00;43.00;28.00
65360;PMS5003;51958;55.018;73.536;2023-06-10T15:29:37;51.00;41.50;28.00
65360;PMS5003;51958;55.018;73.536;2023-06-10T15:32:38;53.25;42.00;28.00
65360;PMS5003;51958;55.018;73.536;2023-06-10T15:35:39;54.00;41.00;27.00
65360;PMS5003;51958;55.018;73.536;2023-06-10T15:38:40;57.75;45.25;30.25
65360;PMS5003;51958;55.018;73.536;2023-06-10T15:41:41;59.00;46.50;30.75
65360;PMS5003;51958;55.018;73.536;2023-06-10T15:44:42;57.00;45.00;29.00
65360;PMS5003;51958;55.018;73.536;2023-06-10T15:47:43;55.00;45.00;30.00
65360;PMS5003;51958;55.018;73.536;2023-06-10T15:50:44;55.00;44.75;30.00
65360;PMS5003;51958;55.018;73.536;2023-06-10T15:53:45;55.00;45.00;29.75
65360;PMS5003;51958;55.018;73.536;2023-06-10T15:56:47;53.33;44.00;30.00
65360;PMS5003;51958;55.018;73.536;2023-06-10T15:59:48;54.00;43.67;29.00
65360;PMS5003;51958;55.018;73.536;2023-06-10T16:02:49;53.50;43.00;28.00
65360;PMS5003;51958;55.018;73.536;2023-06-10T16:05:50;55.00;44.00;28.67
65360;PMS5003;51958;55.018;73.536;2023-06-10T16:08:52;56.75;45.00;30.00
65360;PMS5003;51958;55.018;73.536;2023-06-10T16:11:54;59.00;44.75;30.00
65360;PMS5003;51958;55.018;73.536;2023-06-10T16:14:55;56.00;45.00;30.00
65360;PMS5003;51958;55.018;73.536;2023-06-10T16:17:56;55.00;44.00;29.00
65360;PMS5003;51958;55.018;73.536;2023-06-10T16:20:58;55.50;44.00;29.75
65360;PMS5003;51958;55.018;73.536;2023-06-10T16:23:59;56.67;45.33;29.33
65360;PMS5003;51958;55.018;73.536;2023-06-10T16:27:01;57.50;45.00;30.00
65360;PMS5003;51958;55.018;73.536;2023-06-10T16:30:02;58.00;46.00;31.00
65360;PMS5003;51958;55.018;73.536;2023-06-10T16:33:04;60.50;47.25;32.00
65360;PMS5003;51958;55.018;73.536;2023-06-10T16:36:06;61.00;49.00;33.00
65360;PMS5003;51958;55.018;73.536;2023-06-10T16:39:07;64.00;51.50;33.00
65360;PMS5003;51958;55.018;73.536;2023-06-10T16:42:08;63.00;50.25;33.00
65360;PMS5003;51958;55.018;73.536;2023-06-10T16:45:09;64.33;50.67;33.67
65360;PMS5003;51958;55.018;73.536;2023-06-10T16:48:12;65.00;50.50;35.00
65360;PMS5003;51958;55.018;73.536;2023-06-10T16:51:14;66.50;53.00;35.00
65360;PMS5003;51958;55.018;73.536;2023-06-10T16:54:15;67.75;57.50;36.75
65360;PMS5003;51958;55.018;73.536;2023-06-10T16:57:16;67.33;57.67;36.00
65360;PMS5003;51958;55.018;73.536;2023-06-10T17:00:19;71.25;63.25;43.00
65360;PMS5003;51958;55.018;73.536;2023-06-10T17:03:20;85.00;79.25;51.25
65360;PMS5003;51958;55.018;73.536;2023-06-10T17:06:21;90.00;80.33;52.00
65360;PMS5003;51958;55.018;73.536;2023-06-10T17:09:22;86.00;78.75;52.50
65360;PMS5003;51958;55.018;73.536;2023-06-10T17:12:23;89.00;81.75;54.25
65360;PMS5003;51958;55.018;73.536;2023-06-10T17:15:25;88.50;81.25;55.00